Time;durP1;ratioP1;P1;durP2;ratioP2;P2;SDS_P1;SDS_P2;PMS_P1;PMS_P2;Temp;Humidity;BMP_temperature;BMP_pressure;BME280_temperature;BME280_humidity;BME280_pressure;Samples;Min_cycle;Max_cycle;Signal;HPM_P1;HPM_P2
2021/12/12 00:01:49;;;;;;;22.98;8.32;;;;;;;5.48;78.27;101855.44;3583688;40;20113;-63
2021/12/12 00:04:22;;;;;;;19.50;8.52;;;;;;;5.33;78.34;101829.16;3590494;39;20076;-64
2021/12/12 00:06:55;;;;;;;20.15;8.55;;;;;;;5.58;78.71;101864.09;3583384;40;20295;-63
2021/12/12 00:09:32;;;;;;;21.42;8.30;;;;;;;5.60;78.48;101870.25;3583411;40;20094;-63
2021/12/12 00:12:02;;;;;;;23.88;8.73;;;;;;;5.54;78.03;101865.06;3581808;40;20052;-63
2021/12/12 00:14:33;;;;;;;20.38;7.88;;;;;;;5.63;77.99;101870.19;3580652;40;20052;-64
2021/12/12 00:16:59;;;;;;;20.60;8.60;;;;;;;5.65;78.23;101851.50;3580584;40;20059;-63
2021/12/12 00:19:28;;;;;;;17.05;7.80;;;;;;;5.69;78.08;101854.03;3582482;40;20052;-63
2021/12/12 00:22:00;;;;;;;25.50;7.47;;;;;;;5.66;78.33;101851.44;3583278;40;20083;-63
2021/12/12 00:24:28;;;;;;;17.75;7.25;;;;;;;5.71;77.85;101854.88;3581859;40;20044;-64
2021/12/12 00:26:57;;;;;;;23.20;7.85;;;;;;;5.68;77.84;101848.75;3581669;40;20129;-63
2021/12/12 00:29:26;;;;;;;20.33;7.70;;;;;;;5.72;78.09;101847.75;3583194;40;20044;-63
2021/12/12 00:31:57;;;;;;;19.15;8.07;;;;;;;5.77;77.78;101851.16;3583666;40;20133;-63
2021/12/12 00:34:28;;;;;;;16.52;7.63;;;;;;;5.77;77.38;101846.72;3581409;40;20280;-63
2021/12/12 00:36:55;;;;;;;20.77;7.25;;;;;;;5.79;77.57;101850.22;3583149;40;20048;-63
2021/12/12 00:39:28;;;;;;;21.83;7.43;;;;;;;5.78;77.54;101840.47;3584202;40;20117;-63
2021/12/12 00:42:22;;;;;;;20.90;7.57;;;;;;;5.80;77.73;101841.31;3581326;40;20056;-63
2021/12/12 00:44:56;;;;;;;22.63;8.00;;;;;;;5.80;77.61;101848.41;3583043;40;20275;-63
2021/12/12 00:47:24;;;;;;;20.17;6.72;;;;;;;5.73;78.01;101822.81;3583747;40;20438;-63
2021/12/12 00:49:51;;;;;;;19.52;7.10;;;;;;;5.81;77.58;101835.06;3583769;40;20091;-63
2021/12/12 00:52:21;;;;;;;18.70;6.75;;;;;;;5.82;77.59;101839.47;3582541;40;20063;-63
2021/12/12 00:54:50;;;;;;;16.75;6.97;;;;;;;5.81;78.27;101837.72;3580685;40;20052;-63
2021/12/12 00:57:21;;;;;;;20.00;7.43;;;;;;;5.81;78.39;101837.72;3583464;40;20052;-64
2021/12/12 00:59:47;;;;;;;22.17;8.25;;;;;;;5.84;78.55;101830.56;3577456;40;20052;-63
2021/12/12 01:02:26;;;;;;;18.75;7.63;;;;;;;5.82;78.63;101822.59;3583377;40;20059;-64
2021/12/12 01:04:57;;;;;;;23.00;8.10;;;;;;;5.86;78.64;101818.91;3583247;40;20049;-64
2021/12/12 01:07:34;;;;;;;20.25;7.28;;;;;;;5.84;78.75;101819.91;3582978;40;20092;-64
2021/12/12 01:10:32;;;;;;;19.98;7.70;;;;;;;5.87;78.60;101809.09;3580936;40;20315;-64
2021/12/12 01:13:03;;;;;;;21.38;7.43;;;;;;;5.81;78.54;101819.03;3580823;40;20278;-64
2021/12/12 01:15:44;;;;;;;23.25;8.57;;;;;;;5.77;78.97;101819.16;3582627;40;20064;-63
2021/12/12 01:18:17;;;;;;;19.98;7.72;;;;;;;5.78;79.20;101816.47;3582314;40;20057;-63
2021/12/12 01:21:01;;;;;;;19.90;7.88;;;;;;;5.84;78.95;101819.91;3581103;40;20055;-64
2021/12/12 01:24:00;;;;;;;21.23;8.02;;;;;;;5.84;79.27;101823.44;3581261;40;20048;-63
2021/12/12 01:26:29;;;;;;;17.60;7.22;;;;;;;5.83;79.36;101819.00;3578998;40;20060;-63
2021/12/12 01:28:58;;;;;;;19.00;8.65;;;;;;;5.83;79.80;101813.66;3582523;40;20049;-63
2021/12/12 01:31:29;;;;;;;18.27;8.15;;;;;;;5.85;79.37;101824.31;3580609;40;20056;-63
2021/12/12 01:34:10;;;;;;;25.42;9.50;;;;;;;5.88;79.94;101821.56;3581982;40;20084;-63
2021/12/12 01:37:05;;;;;;;18.08;8.50;;;;;;;5.86;79.25;101820.72;3582363;40;20430;-63
2021/12/12 01:39:44;;;;;;;21.13;7.95;;;;;;;5.91;79.40;101827.69;3583075;40;20048;-64
2021/12/12 01:42:20;;;;;;;19.83;7.97;;;;;;;5.90;79.83;101825.03;3582556;40;20150;-63
2021/12/12 01:44:57;;;;;;;15.52;7.20;;;;;;;5.89;79.27;101813.50;3583600;40;20049;-63
2021/12/12 01:47:33;;;;;;;22.73;8.90;;;;;;;5.93;79.95;101811.66;3583843;40;20048;-63
2021/12/12 01:50:09;;;;;;;20.88;8.13;;;;;;;5.92;79.53;101813.41;3581435;40;20092;-63
2021/12/12 01:52:38;;;;;;;19.13;8.05;;;;;;;5.94;79.45;101810.75;3584283;40;20055;-63
2021/12/12 01:55:25;;;;;;;17.60;8.27;;;;;;;5.92;80.02;101817.88;3584820;40;20048;-64
2021/12/12 01:57:56;;;;;;;18.45;7.75;;;;;;;5.90;80.34;101814.38;3581675;40;20126;-63
2021/12/12 02:00:33;;;;;;;20.60;7.38;;;;;;;5.94;80.64;101803.63;3584524;40;20060;-63
2021/12/12 02:03:01;;;;;;;28.35;8.43;;;;;;;5.94;80.10;101808.97;3581809;40;20044;-64
2021/12/12 02:05:29;;;;;;;23.80;7.45;;;;;;;5.95;80.52;101805.38;3582008;40;20413;-64
2021/12/12 02:08:04;;;;;;;21.45;7.57;;;;;;;5.97;79.95;101806.22;3580932;40;20052;-64
2021/12/12 02:10:48;;;;;;;21.38;7.75;;;;;;;6.01;80.33;101804.31;3583673;40;20095;-63
2021/12/12 02:13:20;;;;;;;21.05;7.68;;;;;;;5.99;80.40;101804.38;3584349;40;20072;-64
2021/12/12 02:15:50;;;;;;;22.55;7.93;;;;;;;6.00;80.61;101799.91;3582775;40;20067;-63
2021/12/12 02:18:27;;;;;;;23.75;9.20;;;;;;;6.02;80.45;101801.59;3582441;40;20383;-63
2021/12/12 02:21:49;;;;;;;18.98;7.20;;;;;;;6.04;80.36;101797.09;3584676;40;20158;-64
2021/12/12 02:37:42;;;;;;;23.20;7.88;;;;;;;6.14;81.04;101799.53;3584311;40;20114;-64
2021/12/12 02:40:17;;;;;;;21.02;7.35;;;;;;;6.16;80.25;101792.38;3585043;40;20055;-63
2021/12/12 02:42:43;;;;;;;22.85;7.05;;;;;;;6.23;81.05;101797.47;3582398;40;20119;-63
2021/12/12 02:45:15;;;;;;;20.15;7.55;;;;;;;6.21;80.47;101791.28;3584184;40;20095;-63
2021/12/12 02:47:43;;;;;;;22.38;7.93;;;;;;;6.33;80.17;101782.06;3584895;40;20044;-63
2021/12/12 02:50:20;;;;;;;20.73;7.88;;;;;;;6.18;80.60;101754.00;3581469;40;20073;-64
2021/12/12 02:53:06;;;;;;;24.05;6.72;;;;;;;6.30;80.86;101763.47;3583550;40;20056;-63
2021/12/12 02:55:38;;;;;;;24.85;8.02;;;;;;;6.30;81.21;101767.94;3583164;40;20053;-62
2021/12/12 02:58:10;;;;;;;23.65;7.40;;;;;;;6.28;80.80;101760.84;3584691;40;20091;-63
2021/12/12 03:00:46;;;;;;;19.90;7.30;;;;;;;6.27;81.51;101761.75;3582295;40;20044;-63
2021/12/12 03:03:15;;;;;;;21.73;6.97;;;;;;;6.28;81.67;101763.53;3582734;40;20062;-63
2021/12/12 03:05:46;;;;;;;24.30;8.07;;;;;;;6.27;81.54;101777.78;3581799;40;20072;-63
2021/12/12 03:08:12;;;;;;;20.08;7.07;;;;;;;6.26;82.63;101760.00;3584210;40;20048;-63
2021/12/12 03:10:44;;;;;;;23.20;7.63;;;;;;;6.27;82.38;101756.41;3583877;40;20048;-63
2021/12/12 03:13:10;;;;;;;21.48;7.78;;;;;;;6.15;82.63;101730.09;3582402;40;20064;-63
2021/12/12 03:15:41;;;;;;;18.25;7.05;;;;;;;6.33;82.89;101765.19;3584131;40;20045;-63
2021/12/12 03:18:18;;;;;;;22.30;7.50;;;;;;;6.22;82.13;101745.00;3583384;40;20044;-63
2021/12/12 03:20:53;;;;;;;24.95;7.50;;;;;;;6.40;82.04;101762.25;3583475;40;20068;-63
2021/12/12 03:23:37;;;;;;;22.58;8.02;;;;;;;6.40;81.99;101774.75;3581859;40;20096;-63
2021/12/12 03:26:11;;;;;;;22.55;8.25;;;;;;;6.39;82.19;101765.00;3616581;22;20052;-66
2021/12/12 03:28:41;;;;;;;18.95;7.43;;;;;;;6.41;82.62;101756.03;3582032;40;20052;-66
2021/12/12 03:31:25;;;;;;;21.02;7.72;;;;;;;6.40;82.61;101756.06;3583383;40;20056;-65
2021/12/12 03:33:52;;;;;;;21.30;7.97;;;;;;;6.39;82.72;101743.63;3582263;40;20052;-66
2021/12/12 03:36:19;;;;;;;21.48;8.13;;;;;;;6.27;83.02;101713.69;3575422;40;20072;-66
2021/12/12 03:39:03;;;;;;;25.55;8.10;;;;;;;6.43;82.51;101737.28;3572798;40;20057;-66
2021/12/12 03:41:34;;;;;;;25.60;9.48;;;;;;;6.38;82.93;101725.88;3573413;40;20053;-67
2021/12/12 03:44:07;;;;;;;24.33;7.75;;;;;;;6.50;82.89;101736.16;3572927;40;20069;-66
2021/12/12 03:46:35;;;;;;;21.67;8.02;;;;;;;6.46;83.18;101742.53;3572080;40;20310;-66
2021/12/12 03:49:03;;;;;;;22.58;7.90;;;;;;;6.34;83.20;101724.19;3573904;40;20073;-66
2021/12/12 03:51:32;;;;;;;19.88;7.88;;;;;;;6.45;83.57;101738.97;3574156;40;20048;-66
2021/12/12 03:54:00;;;;;;;20.50;8.25;;;;;;;6.48;83.41;101743.34;3573203;40;20068;-66
2021/12/12 03:56:27;;;;;;;21.90;8.50;;;;;;;6.50;83.36;101738.81;3573168;40;20376;-66
2021/12/12 03:58:54;;;;;;;27.15;8.43;;;;;;;6.48;84.04;101733.53;3572138;40;20056;-65
2021/12/12 04:01:30;;;;;;;16.73;8.38;;;;;;;6.52;83.75;101739.66;3571442;40;20402;-66
2021/12/12 04:04:08;;;;;;;19.13;8.50;;;;;;;6.52;83.56;101739.66;3571752;40;20316;-65
2021/12/12 04:06:34;;;;;;;23.90;8.02;;;;;;;6.53;83.75;101736.06;3571750;40;20061;-67
2021/12/12 04:09:00;;;;;;;22.35;8.20;;;;;;;6.56;83.24;101735.97;3572554;40;20077;-66
2021/12/12 04:11:37;;;;;;;19.73;8.23;;;;;;;6.56;83.84;101741.31;3573761;40;20044;-65
2021/12/12 04:14:06;;;;;;;16.25;8.68;;;;;;;6.56;83.89;101749.31;3572242;40;20053;-66
2021/12/12 04:16:37;;;;;;;16.25;8.07;;;;;;;6.60;83.21;101750.13;3572863;40;20055;-67
2021/12/12 04:19:06;;;;;;;13.85;7.65;;;;;;;6.59;83.85;101746.56;3563405;40;20057;-66
2021/12/12 04:21:35;;;;;;;19.50;9.15;;;;;;;6.56;84.19;101749.31;3572043;40;20127;-67
2021/12/12 04:24:02;;;;;;;16.73;9.40;;;;;;;6.58;83.54;101750.16;3572580;40;20386;-66
2021/12/12 04:26:37;;;;;;;17.80;9.20;;;;;;;6.60;83.83;101748.34;3572867;40;20096;-66
2021/12/12 04:29:23;;;;;;;17.50;8.15;;;;;;;6.61;83.80;101747.41;3571531;40;20388;-66
2021/12/12 04:31:54;;;;;;;18.40;9.02;;;;;;;6.60;84.18;101742.13;3571068;40;20126;-66
2021/12/12 04:34:25;;;;;;;19.25;8.70;;;;;;;6.62;83.96;101734.91;3573926;40;20563;-66
2021/12/12 04:36:51;;;;;;;16.90;8.05;;;;;;;6.61;83.92;101758.09;3572260;40;20057;-66
2021/12/12 04:39:25;;;;;;;16.40;8.20;;;;;;;6.67;84.09;101751.69;3570858;40;20126;-66
2021/12/12 04:41:58;;;;;;;;;;;;;;;6.67;83.97;101755.22;3572603;40;20571;-67
2021/12/12 04:44:34;;;;;;;17.08;7.47;;;;;;;6.66;83.88;101752.59;3573837;40;19980;-66
2021/12/12 04:50:54;;;;;;;15.32;8.07;;;;;;;6.70;84.56;101743.59;3571880;40;20051;-66
2021/12/12 04:53:32;;;;;;;15.15;7.65;;;;;;;6.70;83.81;101744.44;3572183;40;20056;-66
2021/12/12 04:56:22;;;;;;;14.20;7.18;;;;;;;6.73;84.25;101754.19;3571878;40;20067;-66
2021/12/12 04:59:28;;;;;;;14.60;7.93;;;;;;;6.72;84.77;101745.28;3572588;40;20370;-67
2021/12/12 05:02:12;;;;;;;11.98;7.13;;;;;;;6.73;83.78;101755.03;3571930;40;20682;-66
2021/12/12 05:04:58;;;;;;;13.93;7.30;;;;;;;6.73;84.33;101751.50;3571847;40;20048;-66
2021/12/12 05:07:56;;;;;;;11.60;7.07;;;;;;;6.14;84.08;101664.25;3573099;40;20065;-66
2021/12/12 05:10:37;;;;;;;12.13;7.32;;;;;;;6.78;84.44;101756.69;3563186;40;20048;-66
2021/12/12 05:13:17;;;;;;;14.68;6.85;;;;;;;6.78;84.25;101765.56;3571161;40;20118;-66
2021/12/12 05:16:12;;;;;;;16.30;8.07;;;;;;;6.78;84.39;101764.72;3570037;40;20074;-66
2021/12/12 05:18:49;;;;;;;12.73;7.25;;;;;;;6.53;84.52;101714.69;3573154;40;20052;-66
2021/12/12 05:21:26;;;;;;;13.80;7.50;;;;;;;6.83;84.89;101768.13;3571111;40;20053;-66
2021/12/12 05:23:58;;;;;;;10.93;7.38;;;;;;;6.84;84.16;101767.19;3549472;40;20083;-66
2021/12/12 05:26:34;;;;;;;13.85;7.60;;;;;;;6.83;84.79;101770.78;3571496;40;20124;-66
2021/12/12 05:29:41;;;;;;;11.27;6.43;;;;;;;6.91;83.93;101774.09;3572784;40;20446;-66
2021/12/12 05:32:09;;;;;;;11.80;7.20;;;;;;;6.92;84.90;101775.84;3560195;40;20280;-66
2021/12/12 05:34:40;;;;;;;12.75;7.70;;;;;;;6.91;84.46;101775.00;3572073;40;20053;-66
2021/12/12 05:37:12;;;;;;;10.82;6.90;;;;;;;6.93;84.50;101782.94;3570545;40;20049;-66
2021/12/12 05:39:39;;;;;;;9.63;7.32;;;;;;;6.93;84.85;101777.59;3572323;40;20053;-66
2021/12/12 05:42:06;;;;;;;13.27;7.28;;;;;;;6.72;84.89;101726.59;3572022;40;20049;-66
2021/12/12 05:44:32;;;;;;;12.68;7.10;;;;;;;6.95;84.87;101771.28;3567869;40;20134;-65
2021/12/12 05:47:06;;;;;;;9.02;6.53;;;;;;;6.96;85.14;101761.47;3562158;40;20115;-66
2021/12/12 05:49:35;;;;;;;12.30;7.10;;;;;;;7.00;84.59;101773.81;3572659;40;20077;-66
2021/12/12 05:52:02;;;;;;;12.60;7.55;;;;;;;6.95;84.78;101767.75;3572975;40;20065;-66
2021/12/12 05:54:29;;;;;;;13.38;7.47;;;;;;;7.04;85.25;101780.81;3572838;40;20059;-66
2021/12/12 05:56:59;;;;;;;11.50;7.65;;;;;;;7.06;84.90;101778.94;3571207;40;20052;-67
2021/12/12 05:59:24;;;;;;;11.80;8.20;;;;;;;7.08;84.41;101789.63;3572818;40;20051;-66
2021/12/12 06:01:51;;;;;;;11.85;7.20;;;;;;;7.10;84.70;101785.94;3570860;40;20064;-66
2021/12/12 06:04:19;;;;;;;11.15;7.80;;;;;;;7.12;85.06;101794.81;3570233;40;20057;-66
2021/12/12 06:06:46;;;;;;;8.32;7.05;;;;;;;7.14;84.45;101797.44;3572767;40;20458;-64
2021/12/12 06:09:16;;;;;;;14.75;6.95;;;;;;;7.20;85.11;101800.78;3573071;40;20147;-65
2021/12/12 06:11:47;;;;;;;10.35;7.38;;;;;;;7.19;85.03;101791.00;3569927;40;20056;-64
2021/12/12 06:14:17;;;;;;;11.20;7.38;;;;;;;7.23;84.07;101797.16;3570722;40;20288;-65
2021/12/12 06:16:45;;;;;;;12.98;7.50;;;;;;;7.25;84.42;101800.63;3571122;40;20044;-66
2021/12/12 06:19:18;;;;;;;8.43;6.72;;;;;;;7.23;84.40;101802.50;3572702;40;20064;-65
2021/12/12 06:21:48;;;;;;;10.37;6.03;;;;;;;7.31;84.61;101803.09;3571471;40;20061;-65
2021/12/12 06:24:14;;;;;;;10.88;7.40;;;;;;;7.32;84.58;101807.53;3570723;40;20063;-64
2021/12/12 06:26:40;;;;;;;9.05;7.72;;;;;;;7.32;84.78;101807.53;3571662;40;20061;-65
2021/12/12 06:29:08;;;;;;;12.45;7.85;;;;;;;7.33;84.29;101803.94;3572581;40;20151;-64
2021/12/12 06:31:42;;;;;;;10.20;7.60;;;;;;;7.20;84.28;101773.19;3575034;40;20122;-65
2021/12/12 06:34:10;;;;;;;11.00;7.72;;;;;;;7.38;84.17;101793.94;3575330;40;20061;-66
2021/12/12 06:36:37;;;;;;;10.98;8.07;;;;;;;7.40;84.30;101799.25;3571276;40;20057;-66
2021/12/12 06:39:08;;;;;;;12.30;7.93;;;;;;;7.41;84.64;101795.66;3572466;40;20400;-66
2021/12/12 06:41:36;;;;;;;13.82;8.90;;;;;;;7.41;84.97;101795.66;3574365;40;20037;-65
2021/12/12 06:44:07;;;;;;;11.20;7.40;;;;;;;7.45;84.92;101802.66;3573672;40;20049;-66
2021/12/12 06:46:36;;;;;;;12.02;8.20;;;;;;;7.47;85.15;101805.28;3571874;40;20045;-65
2021/12/12 06:49:06;;;;;;;9.38;8.30;;;;;;;7.46;84.55;101799.06;3573920;40;20055;-65
2021/12/12 06:51:40;;;;;;;10.73;7.82;;;;;;;7.49;84.82;101809.66;3574590;40;20061;-66
2021/12/12 06:54:06;;;;;;;11.00;8.50;;;;;;;7.54;85.20;101813.03;3571464;40;20103;-66
2021/12/12 06:56:33;;;;;;;13.52;8.90;;;;;;;7.41;85.03;101790.31;3574510;40;20055;-65
2021/12/12 06:59:02;;;;;;;13.25;9.18;;;;;;;7.56;84.81;101816.56;3573121;40;20309;-65
2021/12/12 07:01:33;;;;;;;13.60;9.38;;;;;;;7.54;84.60;101818.38;3570818;40;20060;-65
2021/12/12 07:04:02;;;;;;;14.23;9.13;;;;;;;7.58;84.88;101825.41;3571784;40;20069;-65
2021/12/12 07:06:30;;;;;;;12.73;9.02;;;;;;;7.65;84.86;101826.94;3574763;40;20299;-65
2021/12/12 07:09:03;;;;;;;14.68;9.45;;;;;;;7.65;85.04;101810.91;3573717;40;20049;-65
2021/12/12 07:11:29;;;;;;;15.17;9.20;;;;;;;7.67;84.47;101814.41;3571041;40;20119;-65
2021/12/12 07:13:56;;;;;;;22.98;15.40;;;;;;;7.63;84.67;101812.72;3573452;40;20271;-65
2021/12/12 07:16:24;;;;;;;12.65;9.48;;;;;;;7.68;84.75;101825.97;3572911;40;20122;-66
2021/12/12 07:18:53;;;;;;;12.30;9.65;;;;;;;7.28;84.99;101740.81;3569173;40;20052;-66
2021/12/12 07:21:21;;;;;;;13.18;9.13;;;;;;;7.74;85.33;101819.53;3573245;40;20088;-66
2021/12/12 07:23:49;;;;;;;12.45;9.13;;;;;;;7.75;84.89;101821.28;3571678;40;20398;-65
2021/12/12 07:26:18;;;;;;;13.93;9.57;;;;;;;7.74;85.21;101822.19;3572194;40;20056;-65
2021/12/12 07:28:45;;;;;;;12.50;10.02;;;;;;;7.75;84.55;101821.28;3574212;40;20044;-66
2021/12/12 07:31:20;;;;;;;14.57;9.10;;;;;;;7.78;84.87;101818.50;3573728;40;20056;-66
2021/12/12 07:33:52;;;;;;;11.52;9.57;;;;;;;7.81;84.87;101823.75;3572318;40;20328;-65
2021/12/12 07:36:22;;;;;;;12.90;8.60;;;;;;;7.83;85.28;101824.56;3572414;40;20060;-64
2021/12/12 07:38:54;;;;;;;11.05;9.02;;;;;;;7.79;85.12;101817.56;3570576;40;20087;-65
2021/12/12 07:41:26;;;;;;;15.40;9.52;;;;;;;7.82;85.03;101817.47;3570071;40;20064;-65
2021/12/12 07:43:53;;;;;;;15.23;9.88;;;;;;;7.85;84.85;101825.41;3573615;40;20061;-64
2021/12/12 07:46:21;;;;;;;14.57;9.75;;;;;;;7.88;84.59;101825.28;3570520;40;20049;-65
2021/12/12 07:48:50;;;;;;;14.18;10.23;;;;;;;7.91;85.41;101828.72;3574130;40;20088;-64
2021/12/12 07:51:21;;;;;;;15.25;9.93;;;;;;;7.88;85.29;101834.19;3572387;40;20061;-66
2021/12/12 07:53:57;;;;;;;12.95;10.43;;;;;;;7.91;84.91;101834.09;3573906;40;20142;-65
2021/12/12 07:56:30;;;;;;;14.63;10.25;;;;;;;7.93;85.33;101820.66;3571097;40;20114;-65
2021/12/12 07:58:59;;;;;;;16.20;10.90;;;;;;;7.92;84.78;101837.63;3573473;40;20080;-65
2021/12/12 08:01:27;;;;;;;16.13;10.40;;;;;;;7.97;85.07;101834.81;3569974;40;20146;-66
2021/12/12 08:03:56;;;;;;;16.42;10.00;;;;;;;7.99;85.41;101841.88;3572189;40;20052;-66
2021/12/12 08:06:24;;;;;;;14.38;10.45;;;;;;;7.98;85.49;101840.09;3572322;40;20338;-65
2021/12/12 08:08:52;;;;;;;13.90;10.45;;;;;;;8.01;85.54;101840.00;3571537;40;20481;-65
2021/12/12 08:11:31;;;;;;;17.80;10.85;;;;;;;8.00;85.18;101846.28;3573407;40;20122;-66
2021/12/12 08:13:58;;;;;;;16.67;10.80;;;;;;;7.97;85.04;101833.00;3568360;40;20057;-66
2021/12/12 08:16:26;;;;;;;15.25;10.45;;;;;;;8.07;85.44;101838.91;3572458;40;20048;-65
2021/12/12 08:18:56;;;;;;;18.80;11.38;;;;;;;8.11;85.10;101857.47;3561786;40;20368;-67
2021/12/12 08:21:23;;;;;;;16.23;11.00;;;;;;;8.07;85.61;101852.31;3572263;40;20086;-67
2021/12/12 08:23:51;;;;;;;17.98;11.35;;;;;;;7.97;85.65;101827.66;3568400;40;20065;-66
2021/12/12 08:26:19;;;;;;;17.08;11.23;;;;;;;8.13;85.32;101869.03;3573745;40;20407;-66
2021/12/12 08:28:45;;;;;;;18.08;11.25;;;;;;;8.16;85.22;101869.84;3571082;40;20056;-66
2021/12/12 08:31:12;;;;;;;16.83;11.45;;;;;;;8.18;85.38;101871.53;3573218;40;20059;-65
2021/12/12 08:33:39;;;;;;;17.73;11.80;;;;;;;8.22;85.52;101875.00;3573061;40;20112;-66
2021/12/12 08:36:05;;;;;;;18.38;11.50;;;;;;;8.24;85.39;101881.16;3572786;40;20076;-66
2021/12/12 08:38:32;;;;;;;17.00;11.82;;;;;;;8.26;85.70;101887.34;3568277;40;20320;-65
2021/12/12 08:41:04;;;;;;;16.48;10.48;;;;;;;8.26;85.19;101890.03;3569993;40;20358;-66
2021/12/12 08:43:31;;;;;;;21.05;11.57;;;;;;;8.28;85.26;101888.19;3573771;40;20057;-66
2021/12/12 08:46:06;;;;;;;18.35;11.35;;;;;;;8.30;85.25;101891.66;3569507;40;20327;-66
2021/12/12 08:48:38;;;;;;;16.45;11.85;;;;;;;8.29;85.18;101873.84;3572919;40;20065;-66
2021/12/12 08:51:18;;;;;;;17.60;11.00;;;;;;;8.35;86.03;101887.03;3570895;40;20061;-66
2021/12/12 08:53:49;;;;;;;20.85;12.50;;;;;;;8.34;85.79;101898.66;3571818;40;20108;-66
2021/12/12 08:56:30;;;;;;;20.50;11.68;;;;;;;8.27;85.45;101871.22;3571605;40;20059;-66
2021/12/12 08:58:59;;;;;;;18.75;11.32;;;;;;;8.41;85.19;101900.25;3574801;40;20056;-66
2021/12/12 09:01:26;;;;;;;22.52;12.68;;;;;;;8.41;85.48;101894.88;3571153;40;20385;-66
2021/12/12 09:04:01;;;;;;;21.30;12.30;;;;;;;8.34;85.53;101879.91;3572262;40;20041;-66
2021/12/12 09:06:37;;;;;;;20.67;12.18;;;;;;;8.49;85.60;101906.19;3572404;40;20052;-65
2021/12/12 09:09:22;;;;;;;21.55;12.75;;;;;;;8.48;85.61;101907.13;3573078;40;20138;-66
2021/12/12 09:12:08;;;;;;;18.40;11.60;;;;;;;8.27;86.08;101865.84;3572131;40;20108;-65
2021/12/12 09:14:41;;;;;;;22.30;12.40;;;;;;;7.96;86.03;101799.13;3572687;40;20053;-67
2021/12/12 09:17:21;;;;;;;20.00;12.00;;;;;;;8.49;85.79;101895.47;3571885;40;20069;-65
2021/12/12 09:19:58;;;;;;;14.73;9.70;;;;;;;8.60;85.63;101904.00;3570797;40;20048;-65
2021/12/12 09:22:35;;;;;;;19.75;11.48;;;;;;;8.54;85.51;101914.94;3572642;40;20088;-66
2021/12/12 09:25:24;;;;;;;21.55;11.95;;;;;;;8.60;86.19;101914.72;3607208;22;22355;-64
2021/12/12 09:28:05;;;;;;;20.05;10.25;;;;;;;8.61;85.73;101910.22;3574898;40;20079;-65
2021/12/12 09:30:31;;;;;;;18.30;11.63;;;;;;;8.28;85.20;101858.72;3583445;40;20100;-64
2021/12/12 09:33:12;;;;;;;20.63;11.15;;;;;;;8.60;86.13;101916.53;3581596;40;20051;-65
2021/12/12 09:36:06;;;;;;;18.55;11.27;;;;;;;8.63;86.23;101924.47;3578923;40;20082;-65
2021/12/12 09:38:51;;;;;;;;;;;;;;;8.65;85.59;101921.72;3574861;40;20290;-65
2021/12/12 09:41:50;;;;;;;;;;;;;;;8.45;85.56;101896.50;3578070;40;20278;-65
2021/12/12 09:45:07;;;;;;;16.60;11.43;;;;;;;8.68;86.12;101926.97;3575362;40;19945;-64
2021/12/12 09:51:23;;;;;;;17.90;11.70;;;;;;;8.72;86.08;101944.69;3571774;40;20104;-65
2021/12/12 09:54:19;;;;;;;20.08;11.50;;;;;;;8.76;85.45;101938.31;3569930;40;20061;-65
2021/12/12 09:57:35;;;;;;;20.80;11.75;;;;;;;8.76;85.73;101931.13;3572174;40;20307;-65
2021/12/12 10:00:10;;;;;;;20.58;11.35;;;;;;;8.82;85.26;101938.06;3573526;40;20414;-65
2021/12/12 10:02:58;;;;;;;30.40;20.67;;;;;;;8.53;85.93;101886.41;3575643;40;20055;-65
2021/12/12 10:06:14;;;;;;;20.83;12.88;;;;;;;8.88;85.55;101939.63;3575691;40;20103;-66
2021/12/12 10:09:10;;;;;;;26.05;15.43;;;;;;;8.91;86.06;101940.41;3577247;40;20385;-65
2021/12/12 10:12:02;;;;;;;18.38;11.55;;;;;;;8.90;85.49;101944.00;3571000;40;20057;-64
2021/12/12 10:14:53;;;;;;;18.20;11.35;;;;;;;8.92;85.23;101933.25;3573506;40;20130;-64
2021/12/12 10:17:44;;;;;;;20.85;11.45;;;;;;;8.97;85.34;101945.53;3578180;40;20048;-65
2021/12/12 10:20:33;;;;;;;23.98;11.43;;;;;;;8.98;86.19;101946.44;3574006;40;20406;-65
2021/12/12 10:23:15;;;;;;;21.20;12.63;;;;;;;9.02;85.50;101938.19;3577663;40;20056;-65
2021/12/12 10:25:52;;;;;;;19.60;11.77;;;;;;;8.99;85.75;101943.66;3576882;40;20096;-65
2021/12/12 10:28:32;;;;;;;19.00;12.10;;;;;;;9.02;86.24;101948.06;3576595;40;20337;-65
2021/12/12 10:31:19;;;;;;;21.52;12.18;;;;;;;9.06;85.36;101947.88;3575378;40;20392;-65
2021/12/12 10:33:57;;;;;;;25.27;13.70;;;;;;;9.07;86.06;101948.78;3577476;40;20048;-65
2021/12/12 10:36:42;;;;;;;23.98;13.57;;;;;;;9.06;85.59;101939.81;3576207;40;20044;-65
2021/12/12 10:39:32;;;;;;;21.60;13.75;;;;;;;9.09;85.56;101943.34;3575627;40;20374;-64
2021/12/12 10:42:30;;;;;;;19.80;12.80;;;;;;;9.12;85.81;101943.22;3573658;40;20079;-64
2021/12/12 10:45:10;;;;;;;19.45;12.52;;;;;;;9.09;86.25;101943.34;3568995;40;20095;-65
2021/12/12 10:47:47;;;;;;;22.27;13.63;;;;;;;9.10;85.56;101942.38;3574588;40;20128;-65
2021/12/12 10:50:28;;;;;;;22.08;14.77;;;;;;;9.14;85.60;101944.03;3577119;40;20100;-64
2021/12/12 10:53:35;;;;;;;19.30;12.65;;;;;;;9.18;86.18;101940.31;3574524;40;20268;-65
2021/12/12 10:56:34;;;;;;;20.00;12.45;;;;;;;9.20;85.59;101946.50;3576868;40;20059;-63
2021/12/12 10:59:33;;;;;;;22.23;13.10;;;;;;;9.18;85.69;101953.72;3569795;40;20049;-64
2021/12/12 11:02:08;;;;;;;18.70;12.13;;;;;;;9.23;86.30;101944.56;3573425;40;20391;-64
2021/12/12 11:04:51;;;;;;;21.08;13.35;;;;;;;9.24;85.98;101937.38;3574927;40;20071;-65
2021/12/12 11:08:00;;;;;;;21.58;13.07;;;;;;;9.13;86.33;101934.22;3571794;40;20060;-65
2021/12/12 11:10:35;;;;;;;18.58;12.57;;;;;;;9.22;86.37;101945.47;3565745;40;20409;-64
2021/12/12 11:13:37;;;;;;;19.95;12.88;;;;;;;9.24;85.89;101943.63;3572349;40;20210;-65
2021/12/12 11:16:15;;;;;;;21.17;13.65;;;;;;;9.26;85.83;101940.88;3577996;40;20057;-65
2021/12/12 11:18:55;;;;;;;18.67;12.40;;;;;;;9.23;85.82;101936.53;3572467;40;20118;-65
2021/12/12 11:21:55;;;;;;;21.70;12.48;;;;;;;9.26;86.08;101932.81;3561118;40;20056;-65
2021/12/12 11:24:37;;;;;;;15.05;9.93;;;;;;;9.16;86.31;101904.59;3571600;40;20109;-64
2021/12/12 11:27:15;;;;;;;14.88;11.50;;;;;;;9.37;86.03;101935.97;3563355;40;20123;-64
2021/12/12 11:29:49;;;;;;;13.23;9.27;;;;;;;9.35;85.82;101921.72;3571283;40;20057;-65
2021/12/12 11:32:29;;;;;;;16.33;11.55;;;;;;;9.41;85.62;101934.91;3571823;40;20063;-64
2021/12/12 11:35:00;;;;;;;17.05;11.90;;;;;;;9.40;86.54;101932.31;3569574;40;20088;-65
2021/12/12 11:37:42;;;;;;;16.88;10.70;;;;;;;9.46;86.47;101935.63;3574633;40;20068;-64
2021/12/12 11:40:47;;;;;;;14.10;10.57;;;;;;;9.50;86.17;101933.69;3570295;40;20060;-64
2021/12/12 11:43:39;;;;;;;13.77;10.27;;;;;;;9.52;85.75;101945.25;3571890;40;20053;-65
2021/12/12 11:46:23;;;;;;;15.18;10.20;;;;;;;9.50;86.28;101934.56;3573438;40;20332;-65
2021/12/12 11:49:25;;;;;;;14.45;10.50;;;;;;;9.50;85.88;101939.03;3576018;40;20056;-65
2021/12/12 11:52:10;;;;;;;15.10;10.77;;;;;;;9.57;85.65;101931.63;3573817;40;20053;-64
2021/12/12 11:55:00;;;;;;;15.63;11.00;;;;;;;9.60;86.01;101944.94;3579310;40;20118;-65
2021/12/12 11:57:38;;;;;;;11.93;9.93;;;;;;;9.59;85.89;101937.81;3574962;40;20060;-65
2021/12/12 12:00:15;;;;;;;14.48;10.80;;;;;;;9.60;86.00;101937.75;3575515;40;20403;-63
2021/12/12 12:02:56;;;;;;;13.65;9.80;;;;;;;9.62;86.45;101946.63;3577389;40;20381;-62
2021/12/12 12:05:56;;;;;;;13.63;10.10;;;;;;;9.62;86.09;101943.94;3572653;40;20127;-63
2021/12/12 12:08:40;;;;;;;12.93;10.30;;;;;;;9.65;86.34;101937.56;3551673;40;20071;-65
2021/12/12 12:11:24;;;;;;;14.90;11.30;;;;;;;9.65;86.25;101935.75;3571954;40;20280;-64
2021/12/12 12:14:03;;;;;;;14.15;10.98;;;;;;;9.67;86.60;101935.69;3572640;40;20057;-64
2021/12/12 12:16:49;;;;;;;15.27;11.30;;;;;;;9.69;85.97;101944.56;3573103;40;20101;-64
2021/12/12 12:19:51;;;;;;;13.15;10.55;;;;;;;9.72;86.17;101955.19;3572727;40;20052;-64
2021/12/12 12:23:11;;;;;;;13.25;10.93;;;;;;;9.72;85.75;101950.69;3574228;40;20391;-64
2021/12/12 12:29:02;;;;;;;13.80;10.55;;;;;;;9.77;85.95;101955.88;3577750;40;20052;-64
2021/12/12 12:31:36;;;;;;;15.05;10.77;;;;;;;9.79;86.32;101958.50;3550662;40;20057;-64